首页
METAR-TAF:

METAR-TAF

机场 :

烏日霍羅德國際機場

乌日霍罗德, 乌克兰

纬度: 48-38-05N, 经度: 022-15-53E, 海拔: 117米

当前天气观测

该预报发布于9小时和37分钟前的15:00 UTC
风速4节,风向西北,在西转西南之间变化
温度 32°C
湿度 46%
气压 1023 hPa
能见度10公里或以上

METAR: UKLU 251500Z 31002MPS 240V350 9999 NSC 32/19 Q1023 R10/090070 NOSIG

时间: 03:37 (00:37 UTC)

预报

该预报发布于10小时和29分钟前的14:08 UTC
预报有效从25日的 15点(UTC)到 25日的 24点(UTC)
风速2节,风向多变
能见度10公里或以上

TAF: UKLU 251408Z 2515/2524 VRB01MPS 9999 NSC TX30/2515Z TN18/2524Z

超过4000个机场的气象观测和天气预报(METAR&TAF报告)。

可查询的气象台以黄色和红色小点在地图上表示。

将鼠标移到小点上方,可查看气象台名称。

然后点击查看天气观测和预报。

如需切换地图:点击带黑十字的绿色按钮放大地图;点击带横线的绿色按钮缩小地图;或者点击绿色箭头查看邻近地区的地图。


METAR-TAF: